sensor_id;sensor_type;location;lat;lon;timestamp;P1;durP1;ratioP1;P2;durP2;ratioP2
17283;SDS011;8760;52.248;20.952;2023-03-13T00:01:36;18.87;;;8.73;;
17283;SDS011;8760;52.248;20.952;2023-03-13T00:04:04;15.73;;;8.40;;
17283;SDS011;8760;52.248;20.952;2023-03-13T00:06:32;18.30;;;9.00;;
17283;SDS011;8760;52.248;20.952;2023-03-13T00:09:01;15.73;;;8.57;;
17283;SDS011;8760;52.248;20.952;2023-03-13T00:11:30;17.77;;;8.50;;
17283;SDS011;8760;52.248;20.952;2023-03-13T00:13:59;17.83;;;8.83;;
17283;SDS011;8760;52.248;20.952;2023-03-13T00:16:30;15.17;;;8.57;;
17283;SDS011;8760;52.248;20.952;2023-03-13T00:18:58;15.30;;;8.73;;
17283;SDS011;8760;52.248;20.952;2023-03-13T00:21:26;14.47;;;9.07;;
17283;SDS011;8760;52.248;20.952;2023-03-13T00:23:54;16.23;;;9.67;;
17283;SDS011;8760;52.248;20.952;2023-03-13T00:26:22;16.23;;;9.63;;
17283;SDS011;8760;52.248;20.952;2023-03-13T00:28:50;17.80;;;9.73;;
17283;SDS011;8760;52.248;20.952;2023-03-13T00:31:19;15.97;;;8.70;;
17283;SDS011;8760;52.248;20.952;2023-03-13T00:33:48;12.93;;;7.20;;
17283;SDS011;8760;52.248;20.952;2023-03-13T00:36:17;13.97;;;7.43;;
17283;SDS011;8760;52.248;20.952;2023-03-13T00:38:45;13.00;;;7.03;;
17283;SDS011;8760;52.248;20.952;2023-03-13T00:41:12;12.63;;;6.80;;
17283;SDS011;8760;52.248;20.952;2023-03-13T00:43:40;12.23;;;6.40;;
17283;SDS011;8760;52.248;20.952;2023-03-13T00:46:08;11.13;;;5.80;;
17283;SDS011;8760;52.248;20.952;2023-03-13T00:48:37;11.13;;;6.13;;
17283;SDS011;8760;52.248;20.952;2023-03-13T00:51:05;12.37;;;6.27;;
17283;SDS011;8760;52.248;20.952;2023-03-13T00:53:32;11.60;;;5.97;;
17283;SDS011;8760;52.248;20.952;2023-03-13T00:56:00;9.77;;;5.60;;
17283;SDS011;8760;52.248;20.952;2023-03-13T00:58:30;12.90;;;6.40;;
17283;SDS011;8760;52.248;20.952;2023-03-13T01:01:04;11.63;;;5.97;;
17283;SDS011;8760;52.248;20.952;2023-03-13T01:03:33;9.73;;;5.90;;
17283;SDS011;8760;52.248;20.952;2023-03-13T01:06:02;9.07;;;5.13;;
17283;SDS011;8760;52.248;20.952;2023-03-13T01:08:31;10.67;;;5.53;;
17283;SDS011;8760;52.248;20.952;2023-03-13T01:10:58;11.50;;;5.30;;
17283;SDS011;8760;52.248;20.952;2023-03-13T01:13:26;10.20;;;5.60;;
17283;SDS011;8760;52.248;20.952;2023-03-13T01:15:53;12.07;;;5.37;;
17283;SDS011;8760;52.248;20.952;2023-03-13T01:18:21;9.33;;;4.77;;
17283;SDS011;8760;52.248;20.952;2023-03-13T01:20:48;9.17;;;5.30;;
17283;SDS011;8760;52.248;20.952;2023-03-13T01:23:16;9.70;;;5.03;;
17283;SDS011;8760;52.248;20.952;2023-03-13T01:25:43;7.63;;;4.77;;
17283;SDS011;8760;52.248;20.952;2023-03-13T01:28:10;10.10;;;5.27;;
17283;SDS011;8760;52.248;20.952;2023-03-13T01:30:37;10.50;;;5.20;;
17283;SDS011;8760;52.248;20.952;2023-03-13T01:33:04;10.07;;;4.53;;
17283;SDS011;8760;52.248;20.952;2023-03-13T01:35:31;12.13;;;5.03;;
17283;SDS011;8760;52.248;20.952;2023-03-13T01:37:58;8.13;;;4.77;;
17283;SDS011;8760;52.248;20.952;2023-03-13T01:40:26;8.17;;;4.97;;
17283;SDS011;8760;52.248;20.952;2023-03-13T01:42:53;7.20;;;4.57;;
17283;SDS011;8760;52.248;20.952;2023-03-13T01:48:29;8.70;;;4.73;;
17283;SDS011;8760;52.248;20.952;2023-03-13T01:51:09;9.33;;;5.03;;
17283;SDS011;8760;52.248;20.952;2023-03-13T01:53:40;11.37;;;4.47;;
17283;SDS011;8760;52.248;20.952;2023-03-13T01:56:14;8.17;;;4.77;;
17283;SDS011;8760;52.248;20.952;2023-03-13T01:58:44;9.67;;;4.87;;
17283;SDS011;8760;52.248;20.952;2023-03-13T02:01:14;6.50;;;4.40;;
17283;SDS011;8760;52.248;20.952;2023-03-13T02:03:42;9.10;;;5.20;;
17283;SDS011;8760;52.248;20.952;2023-03-13T02:06:09;9.53;;;5.30;;
17283;SDS011;8760;52.248;20.952;2023-03-13T02:08:38;7.77;;;5.00;;
17283;SDS011;8760;52.248;20.952;2023-03-13T02:11:11;8.07;;;4.77;;
17283;SDS011;8760;52.248;20.952;2023-03-13T02:13:47;10.13;;;5.03;;
17283;SDS011;8760;52.248;20.952;2023-03-13T02:16:15;12.60;;;5.40;;
17283;SDS011;8760;52.248;20.952;2023-03-13T02:18:42;8.53;;;5.13;;
17283;SDS011;8760;52.248;20.952;2023-03-13T02:21:10;9.37;;;5.53;;
17283;SDS011;8760;52.248;20.952;2023-03-13T02:23:47;9.97;;;5.23;;
17283;SDS011;8760;52.248;20.952;2023-03-13T02:26:20;12.53;;;6.03;;
17283;SDS011;8760;52.248;20.952;2023-03-13T02:28:47;10.00;;;5.63;;
17283;SDS011;8760;52.248;20.952;2023-03-13T02:31:14;12.27;;;6.10;;
17283;SDS011;8760;52.248;20.952;2023-03-13T02:33:41;10.43;;;5.47;;
17283;SDS011;8760;52.248;20.952;2023-03-13T02:36:09;11.77;;;6.50;;
17283;SDS011;8760;52.248;20.952;2023-03-13T02:38:41;10.73;;;6.30;;
17283;SDS011;8760;52.248;20.952;2023-03-13T02:41:12;10.70;;;5.67;;
17283;SDS011;8760;52.248;20.952;2023-03-13T02:43:41;11.73;;;6.37;;
17283;SDS011;8760;52.248;20.952;2023-03-13T02:46:09;10.63;;;6.10;;
17283;SDS011;8760;52.248;20.952;2023-03-13T02:48:38;10.47;;;6.30;;
17283;SDS011;8760;52.248;20.952;2023-03-13T02:51:09;10.37;;;6.07;;
17283;SDS011;8760;52.248;20.952;2023-03-13T02:53:41;12.73;;;6.20;;
17283;SDS011;8760;52.248;20.952;2023-03-13T02:56:10;9.90;;;6.37;;
17283;SDS011;8760;52.248;20.952;2023-03-13T02:58:39;12.73;;;6.40;;
17283;SDS011;8760;52.248;20.952;2023-03-13T03:01:07;10.17;;;6.30;;
17283;SDS011;8760;52.248;20.952;2023-03-13T03:03:34;12.00;;;6.37;;
17283;SDS011;8760;52.248;20.952;2023-03-13T03:06:02;11.47;;;6.33;;
17283;SDS011;8760;52.248;20.952;2023-03-13T03:08:30;11.37;;;6.40;;
17283;SDS011;8760;52.248;20.952;2023-03-13T03:10:57;12.23;;;6.97;;
17283;SDS011;8760;52.248;20.952;2023-03-13T03:13:24;12.80;;;7.10;;
17283;SDS011;8760;52.248;20.952;2023-03-13T03:15:51;13.77;;;6.80;;
17283;SDS011;8760;52.248;20.952;2023-03-13T03:18:19;10.73;;;6.33;;
17283;SDS011;8760;52.248;20.952;2023-03-13T03:20:46;14.10;;;7.20;;
17283;SDS011;8760;52.248;20.952;2023-03-13T03:23:13;11.33;;;6.73;;
17283;SDS011;8760;52.248;20.952;2023-03-13T03:25:40;11.87;;;7.33;;
17283;SDS011;8760;52.248;20.952;2023-03-13T03:28:07;11.10;;;6.63;;
17283;SDS011;8760;52.248;20.952;2023-03-13T03:30:34;12.20;;;6.67;;
17283;SDS011;8760;52.248;20.952;2023-03-13T03:33:01;13.63;;;7.47;;
17283;SDS011;8760;52.248;20.952;2023-03-13T03:35:30;13.37;;;6.83;;
17283;SDS011;8760;52.248;20.952;2023-03-13T03:37:58;11.33;;;6.30;;
17283;SDS011;8760;52.248;20.952;2023-03-13T03:40:25;11.80;;;6.43;;
17283;SDS011;8760;52.248;20.952;2023-03-13T03:42:52;10.30;;;6.33;;
17283;SDS011;8760;52.248;20.952;2023-03-13T03:45:19;10.20;;;7.10;;
17283;SDS011;8760;52.248;20.952;2023-03-13T03:47:46;11.83;;;6.40;;
17283;SDS011;8760;52.248;20.952;2023-03-13T03:50:13;12.67;;;7.00;;
17283;SDS011;8760;52.248;20.952;2023-03-13T03:52:41;14.37;;;7.43;;
17283;SDS011;8760;52.248;20.952;2023-03-13T03:55:08;12.03;;;6.57;;
17283;SDS011;8760;52.248;20.952;2023-03-13T03:57:35;13.50;;;7.50;;
17283;SDS011;8760;52.248;20.952;2023-03-13T04:00:02;13.23;;;6.53;;
17283;SDS011;8760;52.248;20.952;2023-03-13T04:02:31;12.37;;;7.37;;
17283;SDS011;8760;52.248;20.952;2023-03-13T04:04:58;13.03;;;6.80;;
17283;SDS011;8760;52.248;20.952;2023-03-13T04:07:25;13.23;;;6.80;;
17283;SDS011;8760;52.248;20.952;2023-03-13T04:09:53;14.00;;;7.27;;
17283;SDS011;8760;52.248;20.952;2023-03-13T04:12:20;13.03;;;7.10;;
17283;SDS011;8760;52.248;20.952;2023-03-13T04:14:47;12.53;;;7.03;;
17283;SDS011;8760;52.248;20.952;2023-03-13T04:17:14;13.23;;;6.87;;
17283;SDS011;8760;52.248;20.952;2023-03-13T04:19:41;12.03;;;6.97;;
17283;SDS011;8760;52.248;20.952;2023-03-13T04:22:08;10.57;;;6.43;;
17283;SDS011;8760;52.248;20.952;2023-03-13T04:24:35;13.90;;;7.40;;
17283;SDS011;8760;52.248;20.952;2023-03-13T04:27:03;12.20;;;6.63;;
17283;SDS011;8760;52.248;20.952;2023-03-13T04:29:31;11.37;;;6.90;;
17283;SDS011;8760;52.248;20.952;2023-03-13T04:31:59;12.53;;;6.77;;
17283;SDS011;8760;52.248;20.952;2023-03-13T04:34:26;11.23;;;7.50;;
17283;SDS011;8760;52.248;20.952;2023-03-13T04:36:53;13.83;;;7.83;;
17283;SDS011;8760;52.248;20.952;2023-03-13T04:39:20;10.10;;;7.03;;
17283;SDS011;8760;52.248;20.952;2023-03-13T04:41:49;10.73;;;7.37;;
17283;SDS011;8760;52.248;20.952;2023-03-13T04:44:18;13.13;;;7.50;;
17283;SDS011;8760;52.248;20.952;2023-03-13T04:46:46;14.77;;;8.67;;
17283;SDS011;8760;52.248;20.952;2023-03-13T04:49:13;12.97;;;7.50;;
17283;SDS011;8760;52.248;20.952;2023-03-13T04:51:41;13.00;;;7.90;;
17283;SDS011;8760;52.248;20.952;2023-03-13T04:54:08;13.63;;;7.50;;
17283;SDS011;8760;52.248;20.952;2023-03-13T04:56:36;12.70;;;7.57;;
17283;SDS011;8760;52.248;20.952;2023-03-13T04:59:03;13.07;;;7.60;;
17283;SDS011;8760;52.248;20.952;2023-03-13T05:01:31;13.17;;;7.80;;
17283;SDS011;8760;52.248;20.952;2023-03-13T05:03:58;11.93;;;8.40;;
17283;SDS011;8760;52.248;20.952;2023-03-13T05:06:25;14.67;;;8.03;;
17283;SDS011;8760;52.248;20.952;2023-03-13T05:08:52;14.93;;;8.30;;
17283;SDS011;8760;52.248;20.952;2023-03-13T05:11:19;11.53;;;7.87;;
17283;SDS011;8760;52.248;20.952;2023-03-13T05:13:46;13.47;;;8.33;;
17283;SDS011;8760;52.248;20.952;2023-03-13T05:16:13;13.90;;;8.53;;
17283;SDS011;8760;52.248;20.952;2023-03-13T05:18:41;14.33;;;8.13;;
17283;SDS011;8760;52.248;20.952;2023-03-13T05:21:08;13.73;;;8.73;;
17283;SDS011;8760;52.248;20.952;2023-03-13T05:23:35;13.83;;;8.63;;
17283;SDS011;8760;52.248;20.952;2023-03-13T05:26:02;15.83;;;9.37;;
17283;SDS011;8760;52.248;20.952;2023-03-13T05:28:29;13.20;;;8.80;;
17283;SDS011;8760;52.248;20.952;2023-03-13T05:30:56;15.77;;;8.73;;
17283;SDS011;8760;52.248;20.952;2023-03-13T05:33:23;15.37;;;9.57;;
17283;SDS011;8760;52.248;20.952;2023-03-13T05:35:51;13.20;;;8.50;;
17283;SDS011;8760;52.248;20.952;2023-03-13T05:38:18;16.07;;;9.20;;
17283;SDS011;8760;52.248;20.952;2023-03-13T05:40:45;15.60;;;9.60;;
17283;SDS011;8760;52.248;20.952;2023-03-13T05:43:12;14.73;;;9.07;;
17283;SDS011;8760;52.248;20.952;2023-03-13T05:45:39;16.43;;;9.33;;
17283;SDS011;8760;52.248;20.952;2023-03-13T05:48:06;14.23;;;8.97;;
17283;SDS011;8760;52.248;20.952;2023-03-13T05:50:33;14.83;;;9.20;;
17283;SDS011;8760;52.248;20.952;2023-03-13T05:53:01;14.73;;;9.20;;
17283;SDS011;8760;52.248;20.952;2023-03-13T05:55:28;14.73;;;10.03;;
17283;SDS011;8760;52.248;20.952;2023-03-13T05:57:55;13.13;;;9.17;;
17283;SDS011;8760;52.248;20.952;2023-03-13T06:00:22;17.50;;;9.70;;
17283;SDS011;8760;52.248;20.952;2023-03-13T06:02:49;15.17;;;9.57;;
17283;SDS011;8760;52.248;20.952;2023-03-13T06:05:16;16.40;;;10.07;;
17283;SDS011;8760;52.248;20.952;2023-03-13T06:07:43;15.90;;;10.70;;
17283;SDS011;8760;52.248;20.952;2023-03-13T06:10:11;16.80;;;10.40;;
17283;SDS011;8760;52.248;20.952;2023-03-13T06:12:38;14.57;;;10.47;;
17283;SDS011;8760;52.248;20.952;2023-03-13T06:15:06;14.67;;;10.37;;
17283;SDS011;8760;52.248;20.952;2023-03-13T06:17:34;16.13;;;10.47;;
17283;SDS011;8760;52.248;20.952;2023-03-13T06:20:01;19.00;;;11.70;;
17283;SDS011;8760;52.248;20.952;2023-03-13T06:22:30;17.17;;;11.20;;
17283;SDS011;8760;52.248;20.952;2023-03-13T06:24:56;17.47;;;10.93;;
17283;SDS011;8760;52.248;20.952;2023-03-13T06:27:25;16.23;;;11.40;;
17283;SDS011;8760;52.248;20.952;2023-03-13T06:29:52;17.50;;;11.03;;
17283;SDS011;8760;52.248;20.952;2023-03-13T06:32:18;16.40;;;10.97;;
17283;SDS011;8760;52.248;20.952;2023-03-13T06:34:45;24.80;;;12.23;;
17283;SDS011;8760;52.248;20.952;2023-03-13T06:37:12;18.77;;;12.00;;
17283;SDS011;8760;52.248;20.952;2023-03-13T06:39:39;18.00;;;10.73;;
17283;SDS011;8760;52.248;20.952;2023-03-13T06:42:06;16.00;;;11.07;;
17283;SDS011;8760;52.248;20.952;2023-03-13T06:44:34;25.30;;;12.03;;
17283;SDS011;8760;52.248;20.952;2023-03-13T06:47:02;18.20;;;11.87;;
17283;SDS011;8760;52.248;20.952;2023-03-13T06:49:29;18.40;;;12.20;;
17283;SDS011;8760;52.248;20.952;2023-03-13T06:51:56;19.37;;;11.30;;
17283;SDS011;8760;52.248;20.952;2023-03-13T06:54:23;18.50;;;11.40;;
17283;SDS011;8760;52.248;20.952;2023-03-13T06:56:51;23.07;;;12.23;;
17283;SDS011;8760;52.248;20.952;2023-03-13T06:59:18;19.90;;;12.03;;
17283;SDS011;8760;52.248;20.952;2023-03-13T07:01:47;18.23;;;11.73;;
17283;SDS011;8760;52.248;20.952;2023-03-13T07:04:14;15.83;;;11.50;;
17283;SDS011;8760;52.248;20.952;2023-03-13T07:06:41;20.67;;;12.80;;
17283;SDS011;8760;52.248;20.952;2023-03-13T07:09:08;18.17;;;12.00;;
17283;SDS011;8760;52.248;20.952;2023-03-13T07:11:35;18.60;;;11.53;;
17283;SDS011;8760;52.248;20.952;2023-03-13T07:14:02;18.17;;;10.63;;
17283;SDS011;8760;52.248;20.952;2023-03-13T07:16:29;17.33;;;10.40;;
17283;SDS011;8760;52.248;20.952;2023-03-13T07:18:57;17.33;;;11.13;;
17283;SDS011;8760;52.248;20.952;2023-03-13T07:21:24;22.43;;;10.90;;
17283;SDS011;8760;52.248;20.952;2023-03-13T07:23:51;15.33;;;10.33;;
17283;SDS011;8760;52.248;20.952;2023-03-13T07:26:18;16.70;;;10.83;;
17283;SDS011;8760;52.248;20.952;2023-03-13T07:28:45;16.17;;;9.97;;
17283;SDS011;8760;52.248;20.952;2023-03-13T07:31:13;14.17;;;9.83;;
17283;SDS011;8760;52.248;20.952;2023-03-13T07:33:40;14.93;;;9.80;;
17283;SDS011;8760;52.248;20.952;2023-03-13T07:36:10;18.27;;;10.53;;
17283;SDS011;8760;52.248;20.952;2023-03-13T07:38:38;14.53;;;10.17;;
17283;SDS011;8760;52.248;20.952;2023-03-13T07:41:05;16.27;;;10.80;;
17283;SDS011;8760;52.248;20.952;2023-03-13T07:43:32;18.03;;;10.93;;
17283;SDS011;8760;52.248;20.952;2023-03-13T07:46:00;15.20;;;10.27;;
17283;SDS011;8760;52.248;20.952;2023-03-13T07:48:28;15.93;;;9.83;;
17283;SDS011;8760;52.248;20.952;2023-03-13T07:50:57;15.00;;;9.77;;
17283;SDS011;8760;52.248;20.952;2023-03-13T07:53:27;15.30;;;9.60;;
17283;SDS011;8760;52.248;20.952;2023-03-13T07:55:55;16.07;;;9.83;;
17283;SDS011;8760;52.248;20.952;2023-03-13T07:58:23;19.50;;;10.00;;
17283;SDS011;8760;52.248;20.952;2023-03-13T08:00:51;14.83;;;8.97;;
17283;SDS011;8760;52.248;20.952;2023-03-13T08:03:18;17.50;;;9.20;;
17283;SDS011;8760;52.248;20.952;2023-03-13T08:05:46;13.63;;;8.83;;
17283;SDS011;8760;52.248;20.952;2023-03-13T08:08:12;16.10;;;9.50;;
17283;SDS011;8760;52.248;20.952;2023-03-13T08:10:41;13.20;;;9.33;;
17283;SDS011;8760;52.248;20.952;2023-03-13T08:13:09;14.37;;;9.03;;
17283;SDS011;8760;52.248;20.952;2023-03-13T08:15:36;12.57;;;8.70;;
17283;SDS011;8760;52.248;20.952;2023-03-13T08:18:02;15.87;;;8.10;;
17283;SDS011;8760;52.248;20.952;2023-03-13T08:20:30;15.03;;;8.67;;
17283;SDS011;8760;52.248;20.952;2023-03-13T08:22:56;12.97;;;8.50;;
17283;SDS011;8760;52.248;20.952;2023-03-13T08:25:23;13.40;;;8.20;;
17283;SDS011;8760;52.248;20.952;2023-03-13T08:27:52;14.87;;;8.07;;
17283;SDS011;8760;52.248;20.952;2023-03-13T08:30:20;12.73;;;7.60;;
17283;SDS011;8760;52.248;20.952;2023-03-13T08:32:46;11.97;;;8.07;;
17283;SDS011;8760;52.248;20.952;2023-03-13T08:35:13;14.57;;;8.67;;
17283;SDS011;8760;52.248;20.952;2023-03-13T08:37:40;13.67;;;8.00;;
17283;SDS011;8760;52.248;20.952;2023-03-13T08:40:08;13.90;;;8.83;;
17283;SDS011;8760;52.248;20.952;2023-03-13T08:42:36;13.00;;;9.03;;
17283;SDS011;8760;52.248;20.952;2023-03-13T08:45:06;13.07;;;8.90;;
17283;SDS011;8760;52.248;20.952;2023-03-13T08:47:33;14.67;;;8.30;;
17283;SDS011;8760;52.248;20.952;2023-03-13T08:50:01;14.83;;;8.47;;
17283;SDS011;8760;52.248;20.952;2023-03-13T08:52:28;14.13;;;8.73;;
17283;SDS011;8760;52.248;20.952;2023-03-13T08:54:55;13.70;;;9.37;;
17283;SDS011;8760;52.248;20.952;2023-03-13T08:57:22;13.20;;;8.20;;
17283;SDS011;8760;52.248;20.952;2023-03-13T08:59:49;15.73;;;8.43;;
17283;SDS011;8760;52.248;20.952;2023-03-13T09:02:17;14.50;;;8.93;;
17283;SDS011;8760;52.248;20.952;2023-03-13T09:04:46;13.37;;;8.27;;
17283;SDS011;8760;52.248;20.952;2023-03-13T09:07:13;16.37;;;8.37;;
17283;SDS011;8760;52.248;20.952;2023-03-13T09:09:40;13.63;;;8.43;;
17283;SDS011;8760;52.248;20.952;2023-03-13T09:12:08;14.03;;;7.60;;
17283;SDS011;8760;52.248;20.952;2023-03-13T09:14:35;12.23;;;7.67;;
17283;SDS011;8760;52.248;20.952;2023-03-13T09:17:02;11.30;;;8.00;;
17283;SDS011;8760;52.248;20.952;2023-03-13T09:19:30;12.63;;;7.50;;
17283;SDS011;8760;52.248;20.952;2023-03-13T09:21:58;12.03;;;6.83;;
17283;SDS011;8760;52.248;20.952;2023-03-13T09:24:25;17.70;;;7.07;;
17283;SDS011;8760;52.248;20.952;2023-03-13T09:26:52;13.43;;;6.60;;
17283;SDS011;8760;52.248;20.952;2023-03-13T09:29:19;9.87;;;6.43;;
17283;SDS011;8760;52.248;20.952;2023-03-13T09:31:46;10.47;;;6.20;;
17283;SDS011;8760;52.248;20.952;2023-03-13T09:34:12;11.90;;;5.53;;
17283;SDS011;8760;52.248;20.952;2023-03-13T09:36:41;9.93;;;5.17;;
17283;SDS011;8760;52.248;20.952;2023-03-13T09:39:11;11.97;;;5.87;;
17283;SDS011;8760;52.248;20.952;2023-03-13T09:41:39;10.30;;;5.57;;
17283;SDS011;8760;52.248;20.952;2023-03-13T09:44:22;8.93;;;4.67;;
17283;SDS011;8760;52.248;20.952;2023-03-13T09:46:54;16.63;;;5.50;;
17283;SDS011;8760;52.248;20.952;2023-03-13T09:49:28;15.27;;;5.50;;
17283;SDS011;8760;52.248;20.952;2023-03-13T09:52:01;15.03;;;7.20;;
17283;SDS011;8760;52.248;20.952;2023-03-13T09:54:37;11.53;;;4.70;;
17283;SDS011;8760;52.248;20.952;2023-03-13T09:57:12;7.90;;;4.40;;
17283;SDS011;8760;52.248;20.952;2023-03-13T09:59:44;12.53;;;5.30;;
17283;SDS011;8760;52.248;20.952;2023-03-13T10:02:19;10.07;;;5.30;;
17283;SDS011;8760;52.248;20.952;2023-03-13T10:04:52;8.63;;;4.90;;
17283;SDS011;8760;52.248;20.952;2023-03-13T10:07:26;10.20;;;5.17;;
17283;SDS011;8760;52.248;20.952;2023-03-13T10:09:53;12.73;;;5.10;;
17283;SDS011;8760;52.248;20.952;2023-03-13T10:12:21;8.87;;;4.57;;
17283;SDS011;8760;52.248;20.952;2023-03-13T10:14:56;8.83;;;4.03;;
17283;SDS011;8760;52.248;20.952;2023-03-13T10:17:33;9.70;;;4.77;;
17283;SDS011;8760;52.248;20.952;2023-03-13T10:20:10;14.83;;;4.90;;
17283;SDS011;8760;52.248;20.952;2023-03-13T10:22:49;13.17;;;5.37;;
17283;SDS011;8760;52.248;20.952;2023-03-13T10:25:21;13.37;;;4.73;;
17283;SDS011;8760;52.248;20.952;2023-03-13T10:27:53;14.77;;;4.50;;
17283;SDS011;8760;52.248;20.952;2023-03-13T10:30:21;10.67;;;4.67;;
17283;SDS011;8760;52.248;20.952;2023-03-13T10:32:50;13.67;;;4.47;;
17283;SDS011;8760;52.248;20.952;2023-03-13T10:35:20;10.27;;;4.63;;
17283;SDS011;8760;52.248;20.952;2023-03-13T10:37:49;14.80;;;5.30;;
17283;SDS011;8760;52.248;20.952;2023-03-13T10:40:27;12.53;;;5.10;;
17283;SDS011;8760;52.248;20.952;2023-03-13T10:42:58;14.93;;;5.13;;
17283;SDS011;8760;52.248;20.952;2023-03-13T10:45:30;12.27;;;4.40;;
17283;SDS011;8760;52.248;20.952;2023-03-13T10:47:59;15.10;;;5.10;;
17283;SDS011;8760;52.248;20.952;2023-03-13T10:50:31;15.50;;;4.50;;
17283;SDS011;8760;52.248;20.952;2023-03-13T10:53:11;15.03;;;4.90;;
17283;SDS011;8760;52.248;20.952;2023-03-13T10:55:47;14.20;;;4.63;;
17283;SDS011;8760;52.248;20.952;2023-03-13T10:58:17;9.03;;;3.83;;
17283;SDS011;8760;52.248;20.952;2023-03-13T11:00:46;12.13;;;4.33;;
17283;SDS011;8760;52.248;20.952;2023-03-13T11:03:14;10.53;;;4.40;;
17283;SDS011;8760;52.248;20.952;2023-03-13T11:05:43;10.20;;;4.80;;
17283;SDS011;8760;52.248;20.952;2023-03-13T11:08:21;12.33;;;4.70;;
17283;SDS011;8760;52.248;20.952;2023-03-13T11:10:54;9.57;;;4.23;;
17283;SDS011;8760;52.248;20.952;2023-03-13T11:13:31;11.20;;;4.37;;
17283;SDS011;8760;52.248;20.952;2023-03-13T11:16:02;13.17;;;4.83;;
17283;SDS011;8760;52.248;20.952;2023-03-13T11:18:39;10.20;;;4.03;;
17283;SDS011;8760;52.248;20.952;2023-03-13T11:21:10;9.97;;;3.67;;
17283;SDS011;8760;52.248;20.952;2023-03-13T11:23:47;12.10;;;4.03;;
17283;SDS011;8760;52.248;20.952;2023-03-13T11:26:21;13.00;;;4.33;;
17283;SDS011;8760;52.248;20.952;2023-03-13T11:28:54;11.93;;;3.70;;
17283;SDS011;8760;52.248;20.952;2023-03-13T11:31:27;9.73;;;4.53;;
17283;SDS011;8760;52.248;20.952;2023-03-13T11:33:58;9.23;;;4.03;;
17283;SDS011;8760;52.248;20.952;2023-03-13T11:36:31;11.00;;;4.40;;
17283;SDS011;8760;52.248;20.952;2023-03-13T11:39:09;10.87;;;4.50;;
17283;SDS011;8760;52.248;20.952;2023-03-13T11:41:58;8.27;;;3.77;;
17283;SDS011;8760;52.248;20.952;2023-03-13T11:44:29;10.77;;;4.20;;
17283;SDS011;8760;52.248;20.952;2023-03-13T11:47:14;7.97;;;3.67;;
17283;SDS011;8760;52.248;20.952;2023-03-13T11:50:09;12.30;;;4.60;;
17283;SDS011;8760;52.248;20.952;2023-03-13T11:52:47;10.80;;;4.20;;
17283;SDS011;8760;52.248;20.952;2023-03-13T11:55:26;10.93;;;4.30;;
17283;SDS011;8760;52.248;20.952;2023-03-13T11:58:08;10.27;;;3.63;;
17283;SDS011;8760;52.248;20.952;2023-03-13T12:00:51;10.87;;;4.00;;
17283;SDS011;8760;52.248;20.952;2023-03-13T12:03:25;10.83;;;4.10;;
17283;SDS011;8760;52.248;20.952;2023-03-13T12:06:01;8.20;;;3.60;;
17283;SDS011;8760;52.248;20.952;2023-03-13T12:08:33;10.77;;;4.03;;
17283;SDS011;8760;52.248;20.952;2023-03-13T12:11:05;10.23;;;4.23;;
17283;SDS011;8760;52.248;20.952;2023-03-13T12:13:39;12.53;;;4.30;;
17283;SDS011;8760;52.248;20.952;2023-03-13T12:16:10;13.53;;;4.70;;
17283;SDS011;8760;52.248;20.952;2023-03-13T12:18:40;11.90;;;3.83;;
17283;SDS011;8760;52.248;20.952;2023-03-13T12:21:12;13.30;;;4.13;;
17283;SDS011;8760;52.248;20.952;2023-03-13T12:23:45;7.63;;;3.37;;
17283;SDS011;8760;52.248;20.952;2023-03-13T12:26:20;9.77;;;3.80;;
17283;SDS011;8760;52.248;20.952;2023-03-13T12:28:56;11.47;;;3.67;;
17283;SDS011;8760;52.248;20.952;2023-03-13T12:31:32;13.57;;;4.03;;
17283;SDS011;8760;52.248;20.952;2023-03-13T12:34:06;11.87;;;3.57;;
17283;SDS011;8760;52.248;20.952;2023-03-13T12:36:39;13.93;;;4.83;;
17283;SDS011;8760;52.248;20.952;2023-03-13T12:39:13;9.17;;;3.23;;
17283;SDS011;8760;52.248;20.952;2023-03-13T12:41:49;13.27;;;3.93;;
17283;SDS011;8760;52.248;20.952;2023-03-13T12:44:26;10.13;;;3.53;;
17283;SDS011;8760;52.248;20.952;2023-03-13T12:46:57;9.13;;;4.20;;
17283;SDS011;8760;52.248;20.952;2023-03-13T12:49:40;10.20;;;3.60;;
17283;SDS011;8760;52.248;20.952;2023-03-13T12:52:40;11.40;;;3.57;;
17283;SDS011;8760;52.248;20.952;2023-03-13T12:55:42;12.57;;;4.73;;
17283;SDS011;8760;52.248;20.952;2023-03-13T12:58:41;12.73;;;4.33;;
17283;SDS011;8760;52.248;20.952;2023-03-13T13:01:14;14.63;;;4.60;;
17283;SDS011;8760;52.248;20.952;2023-03-13T13:03:51;13.17;;;4.40;;
17283;SDS011;8760;52.248;20.952;2023-03-13T13:06:21;13.33;;;4.47;;
17283;SDS011;8760;52.248;20.952;2023-03-13T13:09:02;11.00;;;4.17;;
17283;SDS011;8760;52.248;20.952;2023-03-13T13:11:34;11.40;;;4.30;;
17283;SDS011;8760;52.248;20.952;2023-03-13T13:17:15;11.87;;;3.87;;
17283;SDS011;8760;52.248;20.952;2023-03-13T13:19:45;13.10;;;4.27;;
17283;SDS011;8760;52.248;20.952;2023-03-13T13:25:31;11.43;;;4.00;;
17283;SDS011;8760;52.248;20.952;2023-03-13T13:28:10;13.70;;;4.17;;
17283;SDS011;8760;52.248;20.952;2023-03-13T13:30:54;14.53;;;4.10;;
17283;SDS011;8760;52.248;20.952;2023-03-13T13:33:38;12.70;;;4.37;;
17283;SDS011;8760;52.248;20.952;2023-03-13T13:36:28;11.00;;;4.70;;
17283;SDS011;8760;52.248;20.952;2023-03-13T13:38:56;14.27;;;4.90;;
17283;SDS011;8760;52.248;20.952;2023-03-13T13:41:25;12.43;;;4.60;;
17283;SDS011;8760;52.248;20.952;2023-03-13T13:44:23;11.67;;;4.07;;
17283;SDS011;8760;52.248;20.952;2023-03-13T13:46:55;12.97;;;4.90;;
17283;SDS011;8760;52.248;20.952;2023-03-13T13:49:27;16.70;;;4.90;;
17283;SDS011;8760;52.248;20.952;2023-03-13T13:58:08;15.13;;;4.73;;
17283;SDS011;8760;52.248;20.952;2023-03-13T14:00:39;12.30;;;4.10;;
17283;SDS011;8760;52.248;20.952;2023-03-13T14:03:17;12.67;;;4.17;;
17283;SDS011;8760;52.248;20.952;2023-03-13T14:05:48;12.77;;;3.97;;
17283;SDS011;8760;52.248;20.952;2023-03-13T14:08:19;12.97;;;4.07;;
17283;SDS011;8760;52.248;20.952;2023-03-13T14:10:50;18.17;;;4.67;;
17283;SDS011;8760;52.248;20.952;2023-03-13T14:13:28;11.90;;;3.77;;
17283;SDS011;8760;52.248;20.952;2023-03-13T14:15:56;9.97;;;3.53;;
17283;SDS011;8760;52.248;20.952;2023-03-13T14:18:23;11.53;;;3.43;;
17283;SDS011;8760;52.248;20.952;2023-03-13T14:21:02;7.67;;;3.43;;
17283;SDS011;8760;52.248;20.952;2023-03-13T14:23:38;12.00;;;4.03;;
17283;SDS011;8760;52.248;20.952;2023-03-13T14:26:07;9.80;;;3.37;;
17283;SDS011;8760;52.248;20.952;2023-03-13T14:28:37;7.43;;;3.50;;
17283;SDS011;8760;52.248;20.952;2023-03-13T14:31:06;10.20;;;2.80;;
17283;SDS011;8760;52.248;20.952;2023-03-13T14:33:36;8.70;;;3.63;;
17283;SDS011;8760;52.248;20.952;2023-03-13T14:36:05;12.10;;;3.50;;
17283;SDS011;8760;52.248;20.952;2023-03-13T14:38:32;11.60;;;4.17;;
17283;SDS011;8760;52.248;20.952;2023-03-13T14:40:59;14.30;;;3.57;;
17283;SDS011;8760;52.248;20.952;2023-03-13T14:43:29;10.13;;;3.80;;
17283;SDS011;8760;52.248;20.952;2023-03-13T14:45:58;12.30;;;3.93;;
17283;SDS011;8760;52.248;20.952;2023-03-13T14:48:26;15.00;;;4.07;;
17283;SDS011;8760;52.248;20.952;2023-03-13T14:50:59;11.90;;;3.83;;
17283;SDS011;8760;52.248;20.952;2023-03-13T14:53:30;12.63;;;3.77;;
17283;SDS011;8760;52.248;20.952;2023-03-13T14:56:11;10.50;;;4.43;;
17283;SDS011;8760;52.248;20.952;2023-03-13T14:58:39;10.80;;;4.60;;
17283;SDS011;8760;52.248;20.952;2023-03-13T15:03:56;11.80;;;4.73;;
17283;SDS011;8760;52.248;20.952;2023-03-13T15:06:23;13.30;;;3.93;;
17283;SDS011;8760;52.248;20.952;2023-03-13T15:11:40;8.60;;;3.47;;
17283;SDS011;8760;52.248;20.952;2023-03-13T15:17:02;7.23;;;2.63;;